createdAt,value
2022-12-14T00:01:36.017Z,28.17
2022-12-14T00:04:02.784Z,31.02
2022-12-14T00:06:32.206Z,28.65
2022-12-14T00:09:01.440Z,30.50
2022-12-14T00:11:28.786Z,29.48
2022-12-14T00:13:59.021Z,28.88
2022-12-14T00:16:27.872Z,27.48
2022-12-14T00:18:56.569Z,30.60
2022-12-14T00:21:23.647Z,28.10
2022-12-14T00:23:51.965Z,31.40
2022-12-14T00:26:18.604Z,24.67
2022-12-14T00:28:46.452Z,27.38
2022-12-14T00:31:14.003Z,26.45
2022-12-14T00:33:41.033Z,24.85
2022-12-14T00:36:09.561Z,26.30
2022-12-14T00:38:36.600Z,24.00
2022-12-14T00:41:03.549Z,29.23
2022-12-14T00:43:30.610Z,27.23
2022-12-14T00:45:57.905Z,26.88
2022-12-14T00:48:26.284Z,26.58
2022-12-14T00:50:54.774Z,25.85
2022-12-14T00:53:22.173Z,26.13
2022-12-14T00:55:51.018Z,23.67
2022-12-14T00:58:20.286Z,26.33
2022-12-14T01:00:50.626Z,29.77
2022-12-14T01:03:17.538Z,24.88
2022-12-14T01:05:49.204Z,27.33
2022-12-14T01:08:16.264Z,29.17
2022-12-14T01:10:43.106Z,30.30
2022-12-14T01:13:11.431Z,26.85
2022-12-14T01:15:39.541Z,26.35
2022-12-14T01:18:06.235Z,27.88
2022-12-14T01:20:33.004Z,29.70
2022-12-14T01:22:59.664Z,25.23
2022-12-14T01:25:26.368Z,26.48
2022-12-14T01:27:53.053Z,26.70
2022-12-14T01:30:19.814Z,29.10
2022-12-14T01:32:47.403Z,27.05
2022-12-14T01:35:14.309Z,30.83
2022-12-14T01:37:41.210Z,28.73
2022-12-14T01:40:08.849Z,32.42
2022-12-14T01:42:37.194Z,25.33
2022-12-14T01:45:06.733Z,27.48
2022-12-14T01:47:44.855Z,29.73
2022-12-14T01:50:30.121Z,29.17
2022-12-14T01:53:02.269Z,28.58
2022-12-14T01:55:40.055Z,28.65
2022-12-14T01:58:20.104Z,27.42
2022-12-14T02:00:48.679Z,24.20
2022-12-14T02:03:20.500Z,31.80
2022-12-14T02:05:51.840Z,28.92
2022-12-14T02:08:20.717Z,27.77
2022-12-14T02:10:49.469Z,26.05
2022-12-14T02:13:46.306Z,25.13
2022-12-14T02:16:15.848Z,31.20
2022-12-14T02:18:42.647Z,29.05
2022-12-14T02:21:40.252Z,30.40
2022-12-14T02:24:27.510Z,26.58
2022-12-14T02:27:26.500Z,33.13
2022-12-14T02:30:10.854Z,26.70
2022-12-14T02:32:46.534Z,26.38
2022-12-14T02:35:25.239Z,29.17
2022-12-14T02:38:06.837Z,29.40
2022-12-14T02:40:35.425Z,28.88
2022-12-14T02:43:17.243Z,31.02
2022-12-14T02:45:49.178Z,26.63
2022-12-14T02:48:29.550Z,28.98
2022-12-14T02:51:15.036Z,29.73
2022-12-14T02:53:50.422Z,30.30
2022-12-14T02:56:22.484Z,29.33
2022-12-14T02:58:51.019Z,28.20
2022-12-14T03:01:22.223Z,32.08
2022-12-14T03:03:49.364Z,28.25
2022-12-14T03:06:25.989Z,32.90
2022-12-14T03:09:15.013Z,29.75
2022-12-14T03:11:56.143Z,29.90
2022-12-14T03:14:34.461Z,19.40
2022-12-14T03:17:13.218Z,31.33
2022-12-14T03:19:49.105Z,31.10
2022-12-14T03:22:59.153Z,28.27
2022-12-14T03:25:35.488Z,32.85
2022-12-14T03:28:26.632Z,26.50
2022-12-14T03:31:04.335Z,29.52
2022-12-14T03:33:32.990Z,33.85
2022-12-14T03:36:25.354Z,31.73
2022-12-14T03:38:55.940Z,31.42
2022-12-14T03:41:55.863Z,32.08
2022-12-14T03:44:49.657Z,36.13
2022-12-14T03:47:23.489Z,28.88
2022-12-14T03:50:04.565Z,28.80
2022-12-14T03:52:46.693Z,32.45
2022-12-14T03:55:20.593Z,29.92
2022-12-14T03:58:11.637Z,35.90
2022-12-14T04:00:57.974Z,33.58
2022-12-14T04:03:49.381Z,30.10
2022-12-14T04:06:32.316Z,26.25
2022-12-14T04:09:07.975Z,30.33
2022-12-14T04:12:00.839Z,31.05
2022-12-14T04:14:55.242Z,34.53
2022-12-14T04:17:49.437Z,31.02
2022-12-14T04:21:02.721Z,30.85
2022-12-14T04:23:55.600Z,29.77
2022-12-14T04:26:27.713Z,30.77
2022-12-14T04:29:22.035Z,32.55
2022-12-14T04:31:54.275Z,28.98
2022-12-14T04:34:24.662Z,28.85
2022-12-14T04:37:01.529Z,33.38
2022-12-14T04:39:52.324Z,29.30
2022-12-14T04:42:24.909Z,24.83
2022-12-14T04:47:30.430Z,27.95
2022-12-14T04:50:12.872Z,31.60
2022-12-14T04:52:47.272Z,31.88
2022-12-14T04:55:46.576Z,32.75
2022-12-14T04:58:24.757Z,34.47
2022-12-14T05:01:02.521Z,31.20
2022-12-14T05:03:37.895Z,34.45
2022-12-14T05:06:46.129Z,33.67
2022-12-14T05:09:16.874Z,30.20
2022-12-14T05:11:56.320Z,28.23
2022-12-14T05:14:34.857Z,36.25
2022-12-14T05:17:09.010Z,30.73
2022-12-14T05:19:37.657Z,35.53
2022-12-14T05:22:08.338Z,31.63
2022-12-14T05:24:35.296Z,33.42
2022-12-14T05:27:02.009Z,21.13
2022-12-14T05:29:28.788Z,31.17
2022-12-14T05:31:55.457Z,27.52
2022-12-14T05:34:22.314Z,30.23
2022-12-14T05:36:49.355Z,28.98
2022-12-14T05:39:16.473Z,29.50
2022-12-14T05:41:43.666Z,32.60
2022-12-14T05:44:10.875Z,33.90
2022-12-14T05:46:37.665Z,30.63
2022-12-14T05:49:04.533Z,25.67
2022-12-14T05:51:31.569Z,29.10
2022-12-14T05:53:59.057Z,27.80
2022-12-14T05:56:26.034Z,32.05
2022-12-14T05:58:52.870Z,25.70
2022-12-14T06:01:20.289Z,32.00
2022-12-14T06:03:47.725Z,28.45
2022-12-14T06:06:15.104Z,27.80
2022-12-14T06:08:47.389Z,28.88
2022-12-14T06:11:19.665Z,29.10
2022-12-14T06:16:24.977Z,24.90
2022-12-14T06:18:54.575Z,27.83
2022-12-14T06:21:31.420Z,26.02
2022-12-14T06:23:59.273Z,24.92
2022-12-14T06:26:27.896Z,27.98
2022-12-14T06:28:56.564Z,28.08
2022-12-14T06:31:28.582Z,31.80
2022-12-14T06:34:01.796Z,26.23
2022-12-14T06:36:34.186Z,29.05
2022-12-14T06:39:12.794Z,26.83
2022-12-14T06:41:40.585Z,24.80
2022-12-14T06:44:11.201Z,24.88
2022-12-14T06:46:38.861Z,21.73
2022-12-14T06:49:06.774Z,24.02
2022-12-14T06:51:39.409Z,27.10
2022-12-14T06:56:33.645Z,22.42
2022-12-14T06:59:00.316Z,31.20
2022-12-14T07:01:27.555Z,21.63
2022-12-14T07:03:57.082Z,24.60
2022-12-14T07:06:25.790Z,28.63
2022-12-14T07:08:54.463Z,30.42
2022-12-14T07:11:21.779Z,27.52
2022-12-14T07:13:48.936Z,26.75
2022-12-14T07:16:21.973Z,27.05
2022-12-14T07:18:49.789Z,27.02
2022-12-14T07:21:18.942Z,26.60
2022-12-14T07:23:47.139Z,19.90
2022-12-14T07:26:17.058Z,23.70
2022-12-14T07:28:45.268Z,19.17
2022-12-14T07:31:15.645Z,19.35
2022-12-14T07:33:42.771Z,25.83
2022-12-14T07:36:18.298Z,30.27
2022-12-14T07:38:47.130Z,27.52
2022-12-14T07:41:22.820Z,29.63
2022-12-14T07:43:51.841Z,24.60
2022-12-14T07:46:23.348Z,22.23
2022-12-14T07:48:52.550Z,29.02
2022-12-14T07:51:23.842Z,24.30
2022-12-14T07:53:51.579Z,24.77
2022-12-14T07:56:26.637Z,25.40
2022-12-14T07:58:56.219Z,26.52
2022-12-14T08:01:28.820Z,22.05
2022-12-14T08:04:32.194Z,25.70
2022-12-14T08:06:58.935Z,28.45
2022-12-14T08:09:25.724Z,30.20
2022-12-14T08:11:52.549Z,25.52
2022-12-14T08:14:20.780Z,25.80
2022-12-14T08:16:48.848Z,23.85
2022-12-14T08:19:16.760Z,24.25
2022-12-14T08:21:45.330Z,22.67
2022-12-14T08:24:13.123Z,22.38
2022-12-14T08:26:40.258Z,24.73
2022-12-14T08:29:07.369Z,25.58
2022-12-14T08:31:34.412Z,26.48
2022-12-14T08:34:01.894Z,29.20
2022-12-14T08:36:30.742Z,25.20
2022-12-14T08:39:03.273Z,22.80
2022-12-14T08:41:30.478Z,25.30
2022-12-14T08:43:59.267Z,23.58
2022-12-14T08:46:28.656Z,18.63
2022-12-14T08:48:56.313Z,24.70
2022-12-14T08:51:24.808Z,22.13
2022-12-14T08:53:52.603Z,23.08
2022-12-14T08:56:22.915Z,24.63
2022-12-14T08:58:50.012Z,24.83
2022-12-14T09:01:19.996Z,24.30
2022-12-14T09:03:47.979Z,19.13
2022-12-14T09:06:24.364Z,22.73
2022-12-14T09:08:51.208Z,21.98
2022-12-14T09:11:19.611Z,22.15
2022-12-14T09:13:47.264Z,23.65
2022-12-14T09:16:17.802Z,21.15
2022-12-14T09:18:45.880Z,20.05
2022-12-14T09:21:13.410Z,21.63
2022-12-14T09:23:41.565Z,19.92
2022-12-14T09:26:12.411Z,20.45
2022-12-14T09:28:41.424Z,21.85
2022-12-14T09:31:11.738Z,22.92
2022-12-14T09:33:38.571Z,21.80
2022-12-14T09:36:16.982Z,20.23
2022-12-14T09:38:51.211Z,17.92
2022-12-14T09:41:28.103Z,20.20
2022-12-14T09:44:18.514Z,20.20
2022-12-14T09:46:51.685Z,18.35
2022-12-14T09:49:31.303Z,18.52
2022-12-14T09:52:04.141Z,18.65
2022-12-14T09:54:37.965Z,17.90
2022-12-14T09:57:13.750Z,16.13
2022-12-14T09:59:41.240Z,16.67
2022-12-14T10:02:32.879Z,19.08
2022-12-14T10:05:33.039Z,18.40
2022-12-14T10:08:14.236Z,19.83
2022-12-14T10:10:59.794Z,18.35
2022-12-14T10:13:51.121Z,16.55
2022-12-14T10:16:52.215Z,16.50
2022-12-14T10:19:33.988Z,19.88
2022-12-14T10:22:23.407Z,15.38
2022-12-14T10:24:58.225Z,17.58
2022-12-14T10:27:27.183Z,16.05
2022-12-14T10:30:04.446Z,16.92
2022-12-14T10:32:45.277Z,16.15
2022-12-14T10:35:16.582Z,18.45
2022-12-14T10:37:48.759Z,17.13
2022-12-14T10:40:35.019Z,14.07
2022-12-14T10:43:18.749Z,19.33
2022-12-14T10:46:23.518Z,15.18
2022-12-14T10:49:24.193Z,13.88
2022-12-14T10:51:57.052Z,18.13
2022-12-14T10:54:35.133Z,16.25
2022-12-14T10:57:02.182Z,15.73
2022-12-14T10:59:40.732Z,18.08
2022-12-14T11:02:21.518Z,15.45
2022-12-14T11:05:06.506Z,17.70
2022-12-14T11:07:33.460Z,15.27
2022-12-14T11:10:22.386Z,16.70
2022-12-14T11:13:00.558Z,17.25
2022-12-14T11:15:40.189Z,16.80
2022-12-14T11:18:29.842Z,15.52
2022-12-14T11:21:02.479Z,17.30
2022-12-14T11:23:30.748Z,15.80
2022-12-14T11:26:00.461Z,14.20
2022-12-14T11:28:37.956Z,15.65
2022-12-14T11:31:13.119Z,16.80
2022-12-14T11:33:41.790Z,15.52
2022-12-14T11:36:09.917Z,15.65
2022-12-14T11:38:36.864Z,14.43
2022-12-14T11:41:10.691Z,15.40
2022-12-14T11:43:38.909Z,15.82
2022-12-14T11:46:06.361Z,14.40
2022-12-14T11:48:38.431Z,15.43
2022-12-14T11:51:13.192Z,15.18
2022-12-14T11:53:40.739Z,17.35
2022-12-14T11:56:13.992Z,14.43
2022-12-14T11:58:50.178Z,15.13
2022-12-14T12:01:24.193Z,14.75
2022-12-14T12:03:59.314Z,15.80
2022-12-14T12:06:28.901Z,17.92
2022-12-14T12:09:01.646Z,15.43
2022-12-14T12:11:34.316Z,15.30
2022-12-14T12:14:05.510Z,15.45
2022-12-14T12:16:33.136Z,17.95
2022-12-14T12:19:12.956Z,16.05
2022-12-14T12:21:44.826Z,15.68
2022-12-14T12:24:38.754Z,16.35
2022-12-14T12:27:16.400Z,13.38
2022-12-14T12:29:55.221Z,15.25
2022-12-14T12:32:26.923Z,15.02
2022-12-14T12:35:41.598Z,14.80
2022-12-14T12:38:13.110Z,16.35
2022-12-14T12:41:03.739Z,15.43
2022-12-14T12:43:36.677Z,15.75
2022-12-14T12:46:15.422Z,13.60
2022-12-14T12:49:02.625Z,16.35
2022-12-14T12:51:34.984Z,17.95
2022-12-14T12:57:03.245Z,15.27
2022-12-14T12:59:29.828Z,16.33
2022-12-14T13:02:09.137Z,17.23
2022-12-14T13:04:40.881Z,14.30
2022-12-14T13:07:26.025Z,15.38
2022-12-14T13:10:05.202Z,17.10
2022-12-14T13:12:50.110Z,17.50
2022-12-14T13:15:21.893Z,16.50
2022-12-14T13:17:53.719Z,16.80
2022-12-14T13:20:25.156Z,15.90
2022-12-14T13:22:52.702Z,17.83
2022-12-14T13:25:48.222Z,18.23
2022-12-14T13:28:27.419Z,16.63
2022-12-14T13:31:15.392Z,17.58
2022-12-14T13:34:23.284Z,15.93
2022-12-14T13:37:18.119Z,16.77
2022-12-14T13:40:06.803Z,17.10
2022-12-14T13:42:39.109Z,17.92
2022-12-14T13:47:54.008Z,16.67
2022-12-14T13:50:37.534Z,16.65
2022-12-14T13:53:12.028Z,17.38
2022-12-14T13:55:46.927Z,19.70
2022-12-14T13:58:47.031Z,18.05
2022-12-14T14:01:35.163Z,16.23
2022-12-14T14:04:11.530Z,17.58
2022-12-14T14:06:44.078Z,16.42
2022-12-14T14:09:26.339Z,20.77
2022-12-14T14:12:02.205Z,18.67
2022-12-14T14:14:34.815Z,17.45
2022-12-14T14:17:14.915Z,17.30
2022-12-14T14:19:42.422Z,17.42
2022-12-14T14:22:23.320Z,18.35
2022-12-14T14:25:01.071Z,17.73
2022-12-14T14:27:49.933Z,16.98
2022-12-14T14:30:29.763Z,20.38
2022-12-14T14:33:19.894Z,15.55
2022-12-14T14:35:43.943Z,16.60
2022-12-14T14:38:30.310Z,20.02
2022-12-14T14:41:18.559Z,16.67
2022-12-14T14:44:19.602Z,16.80
2022-12-14T14:46:49.647Z,19.75
2022-12-14T14:49:25.423Z,16.52
2022-12-14T14:51:52.169Z,16.38
2022-12-14T14:55:06.442Z,16.77
2022-12-14T14:57:33.866Z,17.60
2022-12-14T15:00:02.401Z,17.15
2022-12-14T15:02:52.108Z,19.85
2022-12-14T15:08:23.672Z,20.95
2022-12-14T15:10:50.752Z,22.00
2022-12-14T15:13:24.988Z,18.85
2022-12-14T15:15:53.492Z,22.15
2022-12-14T15:18:24.674Z,18.63
2022-12-14T15:21:02.527Z,16.50
2022-12-14T15:23:42.156Z,18.95
2022-12-14T15:26:16.998Z,20.58
2022-12-14T15:28:48.393Z,18.45
2022-12-14T15:31:15.304Z,18.58
2022-12-14T15:33:43.621Z,19.80
2022-12-14T15:36:19.701Z,18.83
2022-12-14T15:38:56.780Z,20.10
2022-12-14T15:41:27.507Z,19.77
2022-12-14T15:43:59.738Z,18.52
2022-12-14T15:46:35.910Z,20.08
2022-12-14T15:49:08.240Z,20.23
2022-12-14T15:51:41.850Z,21.58
2022-12-14T15:54:17.502Z,21.25
2022-12-14T15:56:46.904Z,20.65
2022-12-14T15:59:25.960Z,20.23
2022-12-14T16:02:06.579Z,18.88
2022-12-14T16:04:33.654Z,18.83
2022-12-14T16:07:09.444Z,17.10
2022-12-14T16:09:51.432Z,19.50
2022-12-14T16:12:27.343Z,19.15
2022-12-14T16:15:00.931Z,20.85
2022-12-14T16:17:35.209Z,20.65
2022-12-14T16:20:23.621Z,21.35
2022-12-14T16:22:59.131Z,21.50
2022-12-14T16:25:25.893Z,21.30
2022-12-14T16:27:53.591Z,22.45
2022-12-14T16:30:22.550Z,21.10
2022-12-14T16:33:19.701Z,19.50
2022-12-14T16:35:57.428Z,20.40
2022-12-14T16:38:24.150Z,21.40
2022-12-14T16:41:00.464Z,18.85
2022-12-14T16:43:36.367Z,20.00
2022-12-14T16:46:03.149Z,18.33
2022-12-14T16:48:35.863Z,20.17
2022-12-14T16:51:38.017Z,21.73
2022-12-14T16:54:39.214Z,22.10
2022-12-14T16:57:09.253Z,21.40
2022-12-14T16:59:36.403Z,20.88
2022-12-14T17:02:04.250Z,20.60
2022-12-14T17:04:37.465Z,21.63
2022-12-14T17:07:04.455Z,20.67
2022-12-14T17:09:36.622Z,21.35
2022-12-14T17:12:13.884Z,23.83
2022-12-14T17:14:47.577Z,24.55
2022-12-14T17:17:26.784Z,24.85
2022-12-14T17:19:53.715Z,23.52
2022-12-14T17:22:31.020Z,23.05
2022-12-14T17:24:59.352Z,23.25
2022-12-14T17:27:26.862Z,26.70
2022-12-14T17:29:55.203Z,21.13
2022-12-14T17:32:24.000Z,27.45
2022-12-14T17:34:50.664Z,23.70
2022-12-14T17:37:21.154Z,24.92
2022-12-14T17:39:48.494Z,21.15
2022-12-14T17:42:18.030Z,25.55
2022-12-14T17:44:51.323Z,22.33
2022-12-14T17:47:18.126Z,25.08
2022-12-14T17:49:45.064Z,23.30
2022-12-14T17:52:28.776Z,22.17
2022-12-14T17:54:55.439Z,26.50
2022-12-14T17:57:24.469Z,25.65
2022-12-14T18:00:12.204Z,21.00
2022-12-14T18:02:39.956Z,26.13
2022-12-14T18:05:11.117Z,24.70
2022-12-14T18:07:37.918Z,26.40
2022-12-14T18:10:05.134Z,25.50
2022-12-14T18:12:41.438Z,22.77
2022-12-14T18:15:28.254Z,27.40
2022-12-14T18:17:55.710Z,27.58
2022-12-14T18:20:24.221Z,27.65
2022-12-14T18:22:53.795Z,26.35
2022-12-14T18:25:20.511Z,28.38
2022-12-14T18:27:47.293Z,23.20
2022-12-14T18:30:14.391Z,27.25
2022-12-14T18:32:41.105Z,27.65
2022-12-14T18:35:18.157Z,27.42
2022-12-14T18:37:45.308Z,28.02
2022-12-14T18:40:18.926Z,25.27
2022-12-14T18:42:46.113Z,26.08
2022-12-14T18:45:21.624Z,26.10
2022-12-14T18:47:48.902Z,27.10
2022-12-14T18:50:17.411Z,28.65
2022-12-14T18:52:45.029Z,26.65
2022-12-14T18:55:35.661Z,26.52
2022-12-14T18:58:03.170Z,26.25
2022-12-14T19:00:36.367Z,26.35
2022-12-14T19:03:04.556Z,26.48
2022-12-14T19:05:31.848Z,28.08
2022-12-14T19:08:00.100Z,29.00
2022-12-14T19:10:30.131Z,30.77
2022-12-14T19:12:57.942Z,30.35
2022-12-14T19:15:30.678Z,24.60
2022-12-14T19:17:57.463Z,27.17
2022-12-14T19:20:25.433Z,25.83
2022-12-14T19:22:52.278Z,27.42
2022-12-14T19:25:21.288Z,25.80
2022-12-14T19:30:37.272Z,27.50
2022-12-14T19:33:04.072Z,32.78
2022-12-14T19:35:31.775Z,31.17
2022-12-14T19:37:59.111Z,28.70
2022-12-14T19:40:26.317Z,26.00
2022-12-14T19:42:53.218Z,28.77
2022-12-14T19:45:20.195Z,27.20
2022-12-14T19:47:47.022Z,27.67
2022-12-14T19:50:14.966Z,33.60
2022-12-14T19:52:42.622Z,31.23
2022-12-14T19:55:09.933Z,29.15
2022-12-14T19:57:40.438Z,31.67
2022-12-14T20:00:09.297Z,29.13
2022-12-14T20:02:37.784Z,32.40
2022-12-14T20:05:06.478Z,35.72
2022-12-14T20:07:38.717Z,29.38
2022-12-14T20:10:09.247Z,29.58
2022-12-14T20:12:35.957Z,27.10
2022-12-14T20:15:02.952Z,29.23
2022-12-14T20:17:29.728Z,34.60
2022-12-14T20:19:56.501Z,28.95
2022-12-14T20:22:23.252Z,28.65
2022-12-14T20:24:50.297Z,29.33
2022-12-14T20:27:18.171Z,25.67
2022-12-14T20:29:44.886Z,33.53
2022-12-14T20:32:11.615Z,27.90
2022-12-14T20:34:39.121Z,34.50
2022-12-14T20:37:06.583Z,34.35
2022-12-14T20:39:33.223Z,27.77
2022-12-14T20:41:59.985Z,31.08
2022-12-14T20:44:26.654Z,32.95
2022-12-14T20:46:53.533Z,30.98
2022-12-14T20:49:21.402Z,29.90
2022-12-14T20:51:48.670Z,30.83
2022-12-14T20:54:18.876Z,31.65
2022-12-14T20:56:49.342Z,27.17
2022-12-14T20:59:17.387Z,28.88
2022-12-14T21:01:47.691Z,33.88
2022-12-14T21:04:17.096Z,32.28
2022-12-14T21:06:43.803Z,30.00
2022-12-14T21:09:11.918Z,29.88
2022-12-14T21:12:05.800Z,31.25
2022-12-14T21:14:34.818Z,28.13
2022-12-14T21:17:02.535Z,32.08
2022-12-14T21:19:29.559Z,34.65
2022-12-14T21:21:56.318Z,31.70
2022-12-14T21:24:53.165Z,29.10
2022-12-14T21:27:23.759Z,32.47
2022-12-14T21:29:50.801Z,32.55
2022-12-14T21:32:18.950Z,29.48
2022-12-14T21:34:46.525Z,34.20
2022-12-14T21:37:13.809Z,33.47
2022-12-14T21:39:40.809Z,38.40
2022-12-14T21:42:10.445Z,36.38
2022-12-14T21:44:37.589Z,31.15
2022-12-14T21:47:07.197Z,33.55
2022-12-14T21:49:36.554Z,35.05
2022-12-14T21:52:07.303Z,31.85
2022-12-14T21:54:34.972Z,33.72
2022-12-14T21:57:20.838Z,31.23
2022-12-14T21:59:47.608Z,33.75
2022-12-14T22:02:17.688Z,32.25
2022-12-14T22:04:46.774Z,30.40
2022-12-14T22:07:14.497Z,33.13
2022-12-14T22:09:41.410Z,33.08
2022-12-14T22:12:08.175Z,29.05
2022-12-14T22:14:35.520Z,31.80
2022-12-14T22:17:02.292Z,34.60
2022-12-14T22:19:29.127Z,29.17
2022-12-14T22:21:56.239Z,31.73
2022-12-14T22:24:24.089Z,32.03
2022-12-14T22:26:51.150Z,30.92
2022-12-14T22:29:19.337Z,32.05
2022-12-14T22:31:46.185Z,31.77
2022-12-14T22:34:19.380Z,30.08
2022-12-14T22:36:47.527Z,30.83
2022-12-14T22:39:14.661Z,31.08
2022-12-14T22:41:41.921Z,33.00
2022-12-14T22:44:11.129Z,28.95
2022-12-14T22:46:38.198Z,30.20
2022-12-14T22:49:05.069Z,29.73
2022-12-14T22:51:31.916Z,35.60
2022-12-14T22:53:58.690Z,31.83
2022-12-14T22:56:40.653Z,34.03
2022-12-14T22:59:18.639Z,37.50
2022-12-14T23:01:49.922Z,31.95
2022-12-14T23:04:17.926Z,30.30
2022-12-14T23:06:45.307Z,32.33
2022-12-14T23:09:30.799Z,35.40
2022-12-14T23:12:21.337Z,28.30
2022-12-14T23:15:07.334Z,30.88
2022-12-14T23:17:53.121Z,34.38
2022-12-14T23:20:38.400Z,33.88
2022-12-14T23:26:09.634Z,31.00
2022-12-14T23:31:40.398Z,26.83
2022-12-14T23:34:25.595Z,32.55
2022-12-14T23:37:13.845Z,33.63
2022-12-14T23:40:03.321Z,30.80
2022-12-14T23:42:48.645Z,27.75
2022-12-14T23:48:19.332Z,29.25
2022-12-14T23:51:04.678Z,38.53
2022-12-14T23:53:50.456Z,28.73
2022-12-14T23:56:36.058Z,29.42
2022-12-14T23:59:24.875Z,27.67
